createdAt,value
2023-03-01T00:01:22.546Z,2.06
2023-03-01T00:03:50.460Z,1.96
2023-03-01T00:06:18.330Z,1.87
2023-03-01T00:08:46.267Z,1.80
2023-03-01T00:11:28.734Z,1.84
2023-03-01T00:13:58.675Z,1.89
2023-03-01T00:16:29.743Z,1.94
2023-03-01T00:18:58.232Z,1.86
2023-03-01T00:21:26.136Z,1.84
2023-03-01T00:23:54.627Z,1.73
2023-03-01T00:26:23.768Z,1.68
2023-03-01T00:28:51.786Z,1.68
2023-03-01T00:31:21.671Z,1.62
2023-03-01T00:33:49.761Z,1.48
2023-03-01T00:36:17.610Z,1.52
2023-03-01T00:38:46.762Z,1.48
2023-03-01T00:41:16.842Z,1.36
2023-03-01T00:43:45.522Z,1.28
2023-03-01T00:46:21.434Z,1.34
2023-03-01T00:48:49.498Z,1.31
2023-03-01T00:51:24.533Z,1.31
2023-03-01T00:53:54.628Z,1.22
2023-03-01T00:56:22.668Z,1.10
2023-03-01T00:58:50.428Z,1.26
2023-03-01T01:01:21.061Z,1.36
2023-03-01T01:03:54.716Z,1.16
2023-03-01T01:06:24.766Z,1.23
2023-03-01T01:08:54.242Z,1.11
2023-03-01T01:11:23.186Z,0.99
2023-03-01T01:13:51.214Z,0.94
2023-03-01T01:16:20.324Z,1.02
2023-03-01T01:18:48.605Z,0.86
2023-03-01T01:21:19.947Z,1.09
2023-03-01T01:23:48.756Z,1.16
2023-03-01T01:26:20.202Z,1.15
2023-03-01T01:28:48.319Z,1.04
2023-03-01T01:31:16.697Z,0.95
2023-03-01T01:33:44.388Z,0.67
2023-03-01T01:36:12.946Z,0.78
2023-03-01T01:38:40.862Z,0.84
2023-03-01T01:41:08.567Z,0.64
2023-03-01T01:43:41.977Z,0.53
2023-03-01T01:46:28.472Z,0.91
2023-03-01T01:49:01.701Z,0.99
2023-03-01T01:51:39.592Z,1.00
2023-03-01T01:54:12.718Z,0.99
2023-03-01T01:56:45.136Z,0.76
2023-03-01T01:59:13.717Z,0.77
2023-03-01T02:01:41.291Z,0.86
2023-03-01T02:04:08.949Z,1.11
2023-03-01T02:06:49.207Z,1.00
2023-03-01T02:09:19.610Z,0.83
2023-03-01T02:11:48.959Z,1.05
2023-03-01T02:14:17.650Z,1.01
2023-03-01T02:16:45.748Z,1.18
2023-03-01T02:19:25.367Z,1.09
2023-03-01T02:22:14.742Z,1.09
2023-03-01T02:24:57.573Z,0.95
2023-03-01T02:27:30.072Z,0.75
2023-03-01T02:29:57.893Z,0.81
2023-03-01T02:32:26.284Z,0.84
2023-03-01T02:34:56.425Z,1.00
2023-03-01T02:37:27.378Z,1.06
2023-03-01T02:40:06.582Z,0.81
2023-03-01T02:43:06.931Z,0.81
2023-03-01T02:45:34.490Z,0.87
2023-03-01T02:48:01.761Z,1.01
2023-03-01T02:50:29.153Z,0.69
2023-03-01T02:52:56.442Z,0.57
2023-03-01T02:55:24.435Z,0.71
2023-03-01T02:57:51.979Z,0.71
2023-03-01T03:00:27.933Z,0.79
2023-03-01T03:02:58.268Z,0.85
2023-03-01T03:05:31.596Z,0.73
2023-03-01T03:08:01.293Z,0.59
2023-03-01T03:10:33.938Z,0.72
2023-03-01T03:13:08.741Z,0.63
2023-03-01T03:15:40.116Z,0.91
2023-03-01T03:18:10.574Z,0.83
2023-03-01T03:20:40.536Z,0.87
2023-03-01T03:23:08.560Z,0.87
2023-03-01T03:25:39.201Z,0.61
2023-03-01T03:28:11.099Z,0.83
2023-03-01T03:30:41.359Z,0.73
2023-03-01T03:33:13.024Z,0.71
2023-03-01T03:35:49.824Z,0.86
2023-03-01T03:38:20.229Z,0.85
2023-03-01T03:40:50.443Z,0.66
2023-03-01T03:43:23.989Z,0.53
2023-03-01T03:45:52.899Z,0.53
2023-03-01T03:48:20.960Z,0.44
2023-03-01T03:50:51.273Z,0.35
2023-03-01T03:53:19.565Z,0.47
2023-03-01T03:55:50.326Z,0.46
2023-03-01T03:58:20.900Z,0.30
2023-03-01T04:00:50.892Z,0.33
2023-03-01T04:03:20.912Z,0.46
2023-03-01T04:05:49.052Z,0.45
2023-03-01T04:08:16.764Z,0.51
2023-03-01T04:10:48.391Z,0.51
2023-03-01T04:13:20.796Z,0.41
2023-03-01T04:15:55.271Z,0.29
2023-03-01T04:18:26.337Z,0.22
2023-03-01T04:20:56.445Z,0.28
2023-03-01T04:23:24.290Z,0.27
2023-03-01T04:25:58.034Z,0.25
2023-03-01T04:28:28.518Z,0.33
2023-03-01T04:30:57.664Z,0.33
2023-03-01T04:33:26.777Z,0.33
2023-03-01T04:35:54.289Z,0.21
2023-03-01T04:38:22.456Z,0.19
2023-03-01T04:40:50.088Z,0.26
2023-03-01T04:43:18.767Z,0.23
2023-03-01T04:45:46.229Z,0.08
2023-03-01T04:48:13.701Z,0.13
2023-03-01T04:50:41.121Z,0.12
2023-03-01T04:53:08.650Z,0.11
2023-03-01T04:55:36.070Z,0.12
2023-03-01T04:58:03.400Z,-0.01
2023-03-01T05:00:30.650Z,0.11
2023-03-01T05:03:01.439Z,0.18
2023-03-01T05:05:32.368Z,0.07
2023-03-01T05:08:03.659Z,0.21
2023-03-01T05:10:33.158Z,0.04
2023-03-01T05:13:00.789Z,0.10
2023-03-01T05:15:29.958Z,0.30
2023-03-01T05:18:01.787Z,0.24
2023-03-01T05:20:31.599Z,0.26
2023-03-01T05:23:00.832Z,0.25
2023-03-01T05:25:34.174Z,0.28
2023-03-01T05:28:05.409Z,0.22
2023-03-01T05:30:35.419Z,0.37
2023-03-01T05:33:03.144Z,0.35
2023-03-01T05:35:33.722Z,0.21
2023-03-01T05:38:01.334Z,0.27
2023-03-01T05:40:30.292Z,0.43
2023-03-01T05:42:58.251Z,0.34
2023-03-01T05:45:27.614Z,0.34
2023-03-01T05:47:56.151Z,0.18
2023-03-01T05:50:33.097Z,0.22
2023-03-01T05:53:10.470Z,0.07
2023-03-01T05:55:38.252Z,-0.13
2023-03-01T05:58:10.263Z,-0.02
2023-03-01T06:00:38.061Z,-0.11
2023-03-01T06:03:05.592Z,-0.03
2023-03-01T06:05:33.385Z,0.03
2023-03-01T06:08:02.136Z,0.12
2023-03-01T06:10:30.091Z,-0.02
2023-03-01T06:12:58.168Z,0.02
2023-03-01T06:15:26.632Z,-0.01
2023-03-01T06:17:58.776Z,0.04
2023-03-01T06:20:29.037Z,-0.01
2023-03-01T06:22:57.153Z,-0.18
2023-03-01T06:25:26.870Z,-0.18
2023-03-01T06:27:54.688Z,-0.24
2023-03-01T06:30:24.057Z,-0.22
2023-03-01T06:32:51.694Z,-0.14
2023-03-01T06:35:20.085Z,-0.18
2023-03-01T06:37:48.938Z,-0.26
2023-03-01T06:40:17.317Z,-0.17
2023-03-01T06:42:52.489Z,-0.28
2023-03-01T06:45:21.947Z,-0.26
2023-03-01T06:47:49.964Z,-0.28
2023-03-01T06:50:18.608Z,-0.35
2023-03-01T06:55:14.401Z,-0.36
2023-03-01T06:57:41.993Z,-0.36
2023-03-01T07:00:10.167Z,-0.45
2023-03-01T07:02:37.738Z,-0.23
2023-03-01T07:05:05.706Z,0.05
2023-03-01T07:07:33.225Z,0.46
2023-03-01T07:10:02.947Z,0.51
2023-03-01T07:12:32.855Z,0.85
2023-03-01T07:15:00.170Z,1.09
2023-03-01T07:17:27.562Z,1.52
2023-03-01T07:19:55.072Z,1.77
2023-03-01T07:22:22.482Z,1.93
2023-03-01T07:24:50.064Z,1.97
2023-03-01T07:27:17.302Z,1.99
2023-03-01T07:29:44.529Z,2.28
2023-03-01T07:32:13.300Z,2.58
2023-03-01T07:34:41.488Z,2.95
2023-03-01T07:37:09.067Z,3.14
2023-03-01T07:39:36.465Z,3.41
2023-03-01T07:42:03.725Z,3.39
2023-03-01T07:44:31.002Z,3.60
2023-03-01T07:46:59.191Z,3.97
2023-03-01T07:49:27.584Z,3.98
2023-03-01T07:51:55.195Z,4.13
2023-03-01T07:54:22.957Z,4.16
2023-03-01T07:56:50.396Z,4.09
2023-03-01T07:59:17.728Z,4.64
2023-03-01T08:01:45.090Z,4.92
2023-03-01T08:04:12.565Z,5.21
2023-03-01T08:06:39.791Z,5.45
2023-03-01T08:09:07.734Z,5.75
2023-03-01T08:11:35.147Z,6.04
2023-03-01T08:14:02.869Z,6.35
2023-03-01T08:16:30.709Z,6.38
2023-03-01T08:19:01.776Z,6.68
2023-03-01T08:21:29.240Z,6.71
2023-03-01T08:23:56.535Z,6.88
2023-03-01T08:26:23.810Z,7.02
2023-03-01T08:28:51.489Z,6.91
2023-03-01T08:31:23.299Z,7.22
2023-03-01T08:33:56.410Z,7.20
2023-03-01T08:36:26.721Z,7.35
2023-03-01T08:38:54.758Z,7.13
2023-03-01T08:41:22.729Z,7.19
2023-03-01T08:43:50.474Z,6.80
2023-03-01T08:46:18.071Z,6.81
2023-03-01T08:48:45.592Z,6.79
2023-03-01T08:51:16.366Z,7.13
2023-03-01T08:53:44.375Z,6.99
2023-03-01T08:56:12.379Z,6.77
2023-03-01T08:58:43.719Z,7.15
2023-03-01T09:01:12.785Z,7.32
2023-03-01T09:03:40.961Z,7.36
2023-03-01T09:06:09.004Z,7.32
2023-03-01T09:08:41.579Z,7.25
2023-03-01T09:11:12.901Z,7.36
2023-03-01T09:13:44.115Z,7.50
2023-03-01T09:16:14.394Z,7.76
2023-03-01T09:18:42.113Z,7.56
2023-03-01T09:21:16.207Z,7.21
2023-03-01T09:23:46.516Z,7.46
2023-03-01T09:26:23.159Z,7.67
2023-03-01T09:28:53.331Z,8.03
2023-03-01T09:31:22.907Z,8.25
2023-03-01T09:33:52.642Z,8.54
2023-03-01T09:36:23.009Z,7.41
2023-03-01T09:38:50.769Z,7.15
2023-03-01T09:41:48.568Z,7.31
2023-03-01T09:44:20.330Z,7.01
2023-03-01T09:46:48.497Z,7.47
2023-03-01T09:49:22.144Z,7.99
2023-03-01T09:51:57.357Z,8.17
2023-03-01T09:54:25.356Z,8.07
2023-03-01T09:57:29.692Z,8.17
2023-03-01T10:00:23.590Z,8.55
2023-03-01T10:03:00.985Z,8.49
2023-03-01T10:05:31.078Z,8.76
2023-03-01T10:08:20.388Z,8.39
2023-03-01T10:10:48.939Z,7.90
2023-03-01T10:13:38.124Z,8.10
2023-03-01T10:16:15.050Z,7.52
2023-03-01T10:18:54.889Z,7.43
2023-03-01T10:21:22.464Z,7.05
2023-03-01T10:23:53.906Z,7.50
2023-03-01T10:26:48.465Z,7.49
2023-03-01T10:29:16.600Z,7.02
2023-03-01T10:31:54.214Z,7.09
2023-03-01T10:34:31.684Z,7.65
2023-03-01T10:37:10.154Z,7.94
2023-03-01T10:39:37.972Z,7.47
2023-03-01T10:42:20.112Z,6.88
2023-03-01T10:44:50.022Z,6.73
2023-03-01T10:47:24.425Z,6.70
2023-03-01T10:49:57.960Z,7.12
2023-03-01T10:52:33.254Z,7.51
2023-03-01T10:55:22.332Z,7.92
2023-03-01T10:57:49.929Z,8.16
2023-03-01T11:00:28.990Z,7.84
2023-03-01T11:02:59.435Z,7.57
2023-03-01T11:05:31.136Z,7.53
2023-03-01T11:08:01.466Z,7.40
2023-03-01T11:10:32.586Z,7.29
2023-03-01T11:13:26.364Z,7.72
2023-03-01T11:16:13.797Z,7.55
2023-03-01T11:18:47.950Z,7.64
2023-03-01T11:21:17.832Z,7.87
2023-03-01T11:23:47.953Z,7.55
2023-03-01T11:26:18.497Z,7.32
2023-03-01T11:28:53.344Z,7.51
2023-03-01T11:31:21.741Z,7.63
2023-03-01T11:34:01.176Z,7.49
2023-03-01T11:36:34.554Z,7.22
2023-03-01T11:39:28.901Z,7.49
2023-03-01T11:42:21.005Z,7.55
2023-03-01T11:44:53.773Z,7.89
2023-03-01T11:47:40.465Z,8.09
2023-03-01T11:50:32.789Z,8.19
2023-03-01T11:53:03.490Z,8.21
2023-03-01T11:56:09.841Z,7.97
2023-03-01T11:58:58.696Z,8.11
2023-03-01T12:01:54.305Z,8.10
2023-03-01T12:05:17.648Z,8.07
2023-03-01T12:08:02.184Z,8.33
2023-03-01T12:11:01.083Z,8.08
2023-03-01T12:14:05.584Z,8.29
2023-03-01T12:16:42.290Z,8.07
2023-03-01T12:19:21.653Z,8.19
2023-03-01T12:22:07.874Z,8.02
2023-03-01T12:24:53.968Z,8.00
2023-03-01T12:27:33.656Z,7.92
2023-03-01T12:30:27.379Z,8.03
2023-03-01T12:33:30.691Z,8.09
2023-03-01T12:36:11.607Z,8.34
2023-03-01T12:38:44.286Z,8.33
2023-03-01T12:41:42.314Z,8.41
2023-03-01T12:44:09.685Z,8.14
2023-03-01T12:46:53.806Z,7.76
2023-03-01T12:49:31.265Z,7.72
2023-03-01T12:52:25.670Z,7.62
2023-03-01T12:54:57.046Z,7.82
2023-03-01T12:57:38.001Z,7.91
2023-03-01T13:00:28.182Z,7.95
2023-03-01T13:03:19.472Z,8.06
2023-03-01T13:06:05.930Z,7.85
2023-03-01T13:08:34.236Z,7.98
2023-03-01T13:11:04.839Z,7.78
2023-03-01T13:13:32.792Z,7.90
2023-03-01T13:16:24.033Z,7.73
2023-03-01T13:19:07.923Z,7.82
2023-03-01T13:21:35.408Z,7.77
2023-03-01T13:24:02.892Z,7.83
2023-03-01T13:26:30.652Z,7.87
2023-03-01T13:28:59.490Z,7.92
2023-03-01T13:31:27.020Z,7.82
2023-03-01T13:33:59.477Z,8.01
2023-03-01T13:36:30.660Z,8.17
2023-03-01T13:39:01.674Z,7.96
2023-03-01T13:41:44.536Z,7.98
2023-03-01T13:44:30.126Z,7.86
2023-03-01T13:47:00.156Z,7.70
2023-03-01T13:49:45.985Z,7.59
2023-03-01T13:52:47.613Z,7.89
2023-03-01T13:55:15.073Z,7.94
2023-03-01T13:57:47.749Z,8.04
2023-03-01T14:00:36.323Z,8.20
2023-03-01T14:03:10.547Z,8.16
2023-03-01T14:05:38.918Z,8.15
2023-03-01T14:08:18.550Z,8.18
2023-03-01T14:11:06.286Z,8.24
2023-03-01T14:13:57.431Z,8.28
2023-03-01T14:16:37.157Z,8.26
2023-03-01T14:19:32.555Z,8.29
2023-03-01T14:22:14.340Z,8.26
2023-03-01T14:24:48.726Z,8.19
2023-03-01T14:27:17.312Z,7.85
2023-03-01T14:29:54.538Z,8.02
2023-03-01T14:32:23.049Z,8.12
2023-03-01T14:34:51.690Z,8.03
2023-03-01T14:37:20.987Z,8.09
2023-03-01T14:39:49.354Z,7.96
2023-03-01T14:42:17.418Z,7.78
2023-03-01T14:44:48.188Z,7.91
2023-03-01T14:47:20.993Z,7.85
2023-03-01T14:49:53.394Z,7.68
2023-03-01T14:52:38.367Z,7.52
2023-03-01T14:55:14.665Z,7.64
2023-03-01T14:57:44.902Z,7.76
2023-03-01T15:00:19.701Z,7.84
2023-03-01T15:02:49.918Z,7.59
2023-03-01T15:05:23.258Z,7.60
2023-03-01T15:07:52.261Z,7.75
2023-03-01T15:10:34.516Z,7.85
2023-03-01T15:13:22.518Z,7.81
2023-03-01T15:15:52.724Z,7.68
2023-03-01T15:18:24.917Z,7.64
2023-03-01T15:20:53.279Z,7.60
2023-03-01T15:23:28.080Z,7.68
2023-03-01T15:26:05.568Z,7.79
2023-03-01T15:28:49.809Z,7.65
2023-03-01T15:31:24.476Z,7.70
2023-03-01T15:33:53.276Z,7.80
2023-03-01T15:36:39.337Z,7.73
2023-03-01T15:39:07.348Z,7.57
2023-03-01T15:41:48.311Z,7.55
2023-03-01T15:44:27.912Z,7.50
2023-03-01T15:46:58.436Z,7.39
2023-03-01T15:49:54.428Z,7.57
2023-03-01T15:52:43.794Z,7.49
2023-03-01T15:55:24.511Z,7.43
2023-03-01T15:58:01.649Z,7.45
2023-03-01T16:00:30.297Z,7.43
2023-03-01T16:02:57.965Z,7.56
2023-03-01T16:05:35.399Z,7.68
2023-03-01T16:08:04.569Z,7.70
2023-03-01T16:10:32.590Z,7.56
2023-03-01T16:13:00.861Z,7.45
2023-03-01T16:15:33.055Z,7.49
2023-03-01T16:18:00.815Z,7.51
2023-03-01T16:20:31.464Z,7.56
2023-03-01T16:23:04.831Z,7.60
2023-03-01T16:25:33.460Z,7.57
2023-03-01T16:28:05.110Z,7.55
2023-03-01T16:30:32.933Z,7.40
2023-03-01T16:33:00.363Z,7.23
2023-03-01T16:35:28.478Z,7.22
2023-03-01T16:37:56.087Z,7.35
2023-03-01T16:40:27.881Z,7.39
2023-03-01T16:43:00.524Z,7.36
2023-03-01T16:45:34.628Z,7.17
2023-03-01T16:48:03.803Z,7.03
2023-03-01T16:50:31.438Z,7.02
2023-03-01T16:52:58.944Z,7.00
2023-03-01T16:55:26.291Z,6.81
2023-03-01T16:57:53.782Z,6.78
2023-03-01T17:00:21.945Z,6.88
2023-03-01T17:02:49.953Z,6.89
2023-03-01T17:05:18.588Z,6.88
2023-03-01T17:07:46.133Z,6.96
2023-03-01T17:10:13.599Z,6.71
2023-03-01T17:12:41.081Z,6.55
2023-03-01T17:15:08.775Z,6.53
2023-03-01T17:17:36.198Z,6.54
2023-03-01T17:20:04.956Z,6.54
2023-03-01T17:22:32.425Z,6.38
2023-03-01T17:24:59.716Z,6.46
2023-03-01T17:27:27.102Z,6.50
2023-03-01T17:29:54.642Z,6.37
2023-03-01T17:32:22.358Z,6.28
2023-03-01T17:34:49.988Z,6.21
2023-03-01T17:37:17.603Z,6.22
2023-03-01T17:39:45.100Z,6.11
2023-03-01T17:42:12.604Z,6.16
2023-03-01T17:44:41.071Z,6.11
2023-03-01T17:47:10.885Z,6.06
2023-03-01T17:49:38.333Z,5.90
2023-03-01T17:52:05.888Z,5.85
2023-03-01T17:54:33.626Z,5.74
2023-03-01T17:57:01.412Z,5.76
2023-03-01T17:59:33.647Z,5.65
2023-03-01T18:02:01.849Z,5.69
2023-03-01T18:04:30.189Z,5.66
2023-03-01T18:06:58.674Z,5.65
2023-03-01T18:09:27.666Z,5.60
2023-03-01T18:11:55.184Z,5.61
2023-03-01T18:14:22.510Z,5.55
2023-03-01T18:16:50.265Z,5.55
2023-03-01T18:19:17.610Z,5.54
2023-03-01T18:21:44.948Z,5.54
2023-03-01T18:24:12.292Z,5.54
2023-03-01T18:26:40.345Z,5.50
2023-03-01T18:29:08.395Z,5.44
2023-03-01T18:31:36.081Z,5.48
2023-03-01T18:34:03.577Z,5.46
2023-03-01T18:36:32.862Z,5.44
2023-03-01T18:39:07.110Z,5.34
2023-03-01T18:41:36.709Z,5.35
2023-03-01T18:44:05.639Z,5.35
2023-03-01T18:46:36.243Z,5.27
2023-03-01T18:49:06.330Z,5.27
2023-03-01T18:51:35.677Z,5.32
2023-03-01T18:54:03.313Z,5.29
2023-03-01T18:56:31.629Z,5.06
2023-03-01T18:59:04.114Z,5.10
2023-03-01T19:01:36.701Z,5.03
2023-03-01T19:04:05.438Z,5.00
2023-03-01T19:06:35.497Z,5.07
2023-03-01T19:09:03.684Z,5.01
2023-03-01T19:11:33.692Z,4.95
2023-03-01T19:14:02.584Z,4.96
2023-03-01T19:16:32.439Z,5.01
2023-03-01T19:19:01.884Z,5.02
2023-03-01T19:21:32.276Z,4.99
2023-03-01T19:24:02.421Z,4.92
2023-03-01T19:26:31.358Z,4.98
2023-03-01T19:28:59.570Z,4.90
2023-03-01T19:31:29.756Z,4.91
2023-03-01T19:34:11.436Z,4.96
2023-03-01T19:36:42.919Z,4.90
2023-03-01T19:39:13.735Z,4.89
2023-03-01T19:41:42.450Z,4.92
2023-03-01T19:44:10.197Z,4.98
2023-03-01T19:46:38.064Z,5.06
2023-03-01T19:49:05.813Z,4.92
2023-03-01T19:51:36.246Z,4.81
2023-03-01T19:54:06.239Z,4.87
2023-03-01T19:56:34.826Z,4.88
2023-03-01T19:59:04.607Z,4.86
2023-03-01T20:01:34.772Z,4.82
2023-03-01T20:04:04.087Z,4.72
2023-03-01T20:06:32.136Z,4.79
2023-03-01T20:09:08.973Z,4.72
2023-03-01T20:11:43.485Z,4.59
2023-03-01T20:14:12.393Z,4.57
2023-03-01T20:16:40.278Z,4.63
2023-03-01T20:19:08.313Z,4.67
2023-03-01T20:21:36.092Z,4.69
2023-03-01T20:24:03.541Z,4.64
2023-03-01T20:26:32.840Z,4.68
2023-03-01T20:29:00.554Z,4.68
2023-03-01T20:31:29.927Z,4.67
2023-03-01T20:33:58.888Z,4.84
2023-03-01T20:36:27.605Z,4.80
2023-03-01T20:38:55.254Z,4.70
2023-03-01T20:41:26.254Z,4.66
2023-03-01T20:43:56.451Z,4.77
2023-03-01T20:46:25.840Z,4.58
2023-03-01T20:48:54.339Z,4.65
2023-03-01T20:51:22.163Z,4.53
2023-03-01T20:53:49.880Z,4.60
2023-03-01T20:56:19.263Z,4.63
2023-03-01T20:59:08.274Z,4.41
2023-03-01T21:01:37.996Z,4.41
2023-03-01T21:04:06.047Z,4.47
2023-03-01T21:06:34.080Z,4.34
2023-03-01T21:09:01.911Z,4.31
2023-03-01T21:11:29.449Z,4.25
2023-03-01T21:13:57.086Z,4.15
2023-03-01T21:16:24.738Z,4.41
2023-03-01T21:18:52.509Z,4.45
2023-03-01T21:21:22.732Z,4.38
2023-03-01T21:23:50.512Z,4.28
2023-03-01T21:26:20.696Z,4.26
2023-03-01T21:28:51.000Z,4.37
2023-03-01T21:31:22.399Z,4.25
2023-03-01T21:33:52.998Z,4.25
2023-03-01T21:36:22.494Z,4.05
2023-03-01T21:38:52.626Z,4.16
2023-03-01T21:41:29.231Z,4.17
2023-03-01T21:44:00.519Z,4.10
2023-03-01T21:46:31.013Z,3.91
2023-03-01T21:48:59.581Z,3.78
2023-03-01T21:51:27.869Z,3.92
2023-03-01T21:53:56.293Z,3.85
2023-03-01T21:56:26.477Z,3.79
2023-03-01T21:58:54.479Z,3.92
2023-03-01T22:01:25.857Z,3.92
2023-03-01T22:03:54.229Z,3.83
2023-03-01T22:06:31.156Z,3.79
2023-03-01T22:09:06.090Z,3.72
2023-03-01T22:11:39.654Z,3.79
2023-03-01T22:14:08.275Z,3.66
2023-03-01T22:16:37.545Z,3.59
2023-03-01T22:19:08.917Z,3.61
2023-03-01T22:21:40.657Z,3.49
2023-03-01T22:24:08.585Z,3.56
2023-03-01T22:26:41.931Z,3.57
2023-03-01T22:29:16.026Z,3.42
2023-03-01T22:31:43.994Z,3.40
2023-03-01T22:34:12.152Z,3.43
2023-03-01T22:36:39.711Z,3.39
2023-03-01T22:39:06.985Z,3.33
2023-03-01T22:41:44.373Z,3.33
2023-03-01T22:44:17.905Z,3.27
2023-03-01T22:46:45.961Z,3.25
2023-03-01T22:49:16.673Z,3.24
2023-03-01T22:51:44.843Z,3.16
2023-03-01T22:54:12.298Z,3.09
2023-03-01T22:56:40.175Z,3.05
2023-03-01T22:59:11.245Z,3.06
2023-03-01T23:01:40.742Z,3.02
2023-03-01T23:04:08.536Z,3.11
2023-03-01T23:06:50.233Z,3.13
2023-03-01T23:09:19.574Z,3.07
2023-03-01T23:11:47.164Z,3.01
2023-03-01T23:14:15.795Z,2.99
2023-03-01T23:16:43.275Z,2.97
2023-03-01T23:19:10.928Z,3.02
2023-03-01T23:21:38.501Z,2.90
2023-03-01T23:24:06.356Z,3.00
2023-03-01T23:26:34.052Z,2.96
2023-03-01T23:29:01.748Z,3.02
2023-03-01T23:31:30.258Z,2.96
2023-03-01T23:33:58.027Z,3.12
2023-03-01T23:36:28.646Z,3.16
2023-03-01T23:39:01.368Z,3.06
2023-03-01T23:41:31.007Z,3.02
2023-03-01T23:44:00.704Z,2.94
2023-03-01T23:46:31.212Z,2.87
2023-03-01T23:48:59.949Z,2.81
2023-03-01T23:51:27.437Z,2.78
2023-03-01T23:54:00.035Z,2.78
2023-03-01T23:56:36.501Z,2.90
2023-03-01T23:59:09.256Z,2.77
